createdAt,value
2018-07-13T00:00:25.250Z,0
2018-07-13T00:00:50.830Z,0
2018-07-13T00:01:16.396Z,0
2018-07-13T00:01:41.973Z,0
2018-07-13T00:02:07.541Z,0
2018-07-13T00:02:33.099Z,0
2018-07-13T00:02:58.690Z,0
2018-07-13T00:03:24.281Z,0
2018-07-13T00:03:49.850Z,0
2018-07-13T00:04:15.403Z,0
2018-07-13T00:04:41.000Z,0
2018-07-13T00:05:06.573Z,0
2018-07-13T00:05:32.171Z,0
2018-07-13T00:05:57.775Z,0
2018-07-13T00:06:23.389Z,0
2018-07-13T00:06:48.980Z,0
2018-07-13T00:07:14.568Z,0
2018-07-13T00:07:40.120Z,0
2018-07-13T00:08:05.706Z,0
2018-07-13T00:08:31.276Z,0
2018-07-13T00:08:56.877Z,0
2018-07-13T00:09:22.464Z,0
2018-07-13T00:09:48.032Z,0
2018-07-13T00:10:13.593Z,0
2018-07-13T00:10:39.177Z,0
2018-07-13T00:11:04.786Z,0
2018-07-13T00:11:30.376Z,0
2018-07-13T00:11:55.978Z,0
2018-07-13T00:12:21.602Z,0
2018-07-13T00:12:47.120Z,0
2018-07-13T00:13:12.698Z,0
2018-07-13T00:13:38.282Z,0
2018-07-13T00:14:03.872Z,0
2018-07-13T00:14:29.473Z,0
2018-07-13T00:14:55.067Z,0
2018-07-13T00:15:20.652Z,0
2018-07-13T00:15:46.240Z,0
2018-07-13T00:16:11.818Z,0
2018-07-13T00:16:37.390Z,0
2018-07-13T00:17:02.992Z,0
2018-07-13T00:17:28.568Z,0
2018-07-13T00:17:54.184Z,0
2018-07-13T00:18:19.738Z,0
2018-07-13T00:18:45.297Z,0
2018-07-13T00:19:10.878Z,0
2018-07-13T00:19:36.458Z,0
2018-07-13T00:20:02.049Z,0
2018-07-13T00:20:27.605Z,0
2018-07-13T00:20:53.179Z,0
2018-07-13T00:21:18.775Z,0
2018-07-13T00:21:44.346Z,0
2018-07-13T00:22:09.899Z,0
2018-07-13T00:22:35.493Z,0
2018-07-13T00:23:01.087Z,0
2018-07-13T00:23:26.665Z,0
2018-07-13T00:23:52.228Z,0
2018-07-13T00:24:17.802Z,0
2018-07-13T00:24:43.357Z,0
2018-07-13T00:25:08.941Z,0
2018-07-13T00:25:34.484Z,0
2018-07-13T00:26:00.081Z,0
2018-07-13T00:26:25.656Z,0
2018-07-13T00:26:51.232Z,0
2018-07-13T00:27:16.802Z,0
2018-07-13T00:27:42.393Z,0
2018-07-13T00:28:07.987Z,0
2018-07-13T00:28:33.554Z,0
2018-07-13T00:28:59.100Z,0
2018-07-13T00:29:24.679Z,0
2018-07-13T00:29:50.238Z,0
2018-07-13T00:30:15.821Z,0
2018-07-13T00:30:41.417Z,0
2018-07-13T00:31:06.962Z,0
2018-07-13T00:31:32.532Z,0
2018-07-13T00:31:58.119Z,0
2018-07-13T00:32:23.680Z,0
2018-07-13T00:32:49.254Z,0
2018-07-13T00:33:14.806Z,0
2018-07-13T00:33:40.398Z,0
2018-07-13T00:34:05.959Z,0
2018-07-13T00:34:31.524Z,0
2018-07-13T00:34:57.097Z,0
2018-07-13T00:35:22.662Z,0
2018-07-13T00:35:48.261Z,0
2018-07-13T00:36:13.838Z,0
2018-07-13T00:36:39.390Z,0
2018-07-13T00:37:04.962Z,0
2018-07-13T00:37:30.564Z,0
2018-07-13T00:37:56.156Z,0
2018-07-13T00:38:21.712Z,0
2018-07-13T00:38:47.284Z,0
2018-07-13T00:39:12.881Z,0
2018-07-13T00:39:38.458Z,0
2018-07-13T00:40:04.010Z,0
2018-07-13T00:40:29.570Z,0
2018-07-13T00:40:55.136Z,0
2018-07-13T00:41:20.744Z,0
2018-07-13T00:41:46.314Z,0
2018-07-13T00:42:11.888Z,0
2018-07-13T00:42:37.462Z,0
2018-07-13T00:43:03.064Z,0
2018-07-13T00:43:28.640Z,0
2018-07-13T00:43:54.192Z,0
2018-07-13T00:44:19.746Z,0
2018-07-13T00:44:45.314Z,0
2018-07-13T00:45:10.897Z,0
2018-07-13T00:45:36.449Z,0
2018-07-13T00:46:02.013Z,0
2018-07-13T00:46:27.576Z,0
2018-07-13T00:46:53.144Z,0
2018-07-13T00:47:18.746Z,0
2018-07-13T00:47:44.350Z,0
2018-07-13T00:48:09.945Z,0
2018-07-13T00:48:35.502Z,0
2018-07-13T00:49:01.082Z,0
2018-07-13T00:49:26.686Z,0
2018-07-13T00:49:52.255Z,0
2018-07-13T00:50:17.836Z,0
2018-07-13T00:50:43.430Z,0
2018-07-13T00:51:08.992Z,0
2018-07-13T00:51:34.563Z,0
2018-07-13T00:52:00.122Z,0
2018-07-13T00:52:25.682Z,0
2018-07-13T00:52:51.284Z,0
2018-07-13T00:53:16.862Z,0
2018-07-13T00:53:42.453Z,0
2018-07-13T00:54:08.069Z,0
2018-07-13T00:54:33.584Z,0
2018-07-13T00:54:59.164Z,0
2018-07-13T00:55:24.747Z,0
2018-07-13T00:55:50.312Z,0
2018-07-13T00:56:15.883Z,0
2018-07-13T00:56:41.466Z,0
2018-07-13T00:57:07.034Z,0
2018-07-13T00:57:32.603Z,0
2018-07-13T00:57:58.154Z,0
2018-07-13T00:58:23.738Z,0
2018-07-13T00:58:49.330Z,0
2018-07-13T00:59:14.892Z,0
2018-07-13T00:59:40.464Z,0
2018-07-13T01:00:06.037Z,0
2018-07-13T01:00:31.615Z,0
2018-07-13T01:00:57.168Z,0
2018-07-13T01:01:22.762Z,0
2018-07-13T01:01:48.342Z,0
2018-07-13T01:02:13.967Z,0
2018-07-13T01:02:39.542Z,0
2018-07-13T01:03:05.138Z,0
2018-07-13T01:03:30.702Z,0
2018-07-13T01:03:56.287Z,0
2018-07-13T01:04:21.852Z,0
2018-07-13T01:04:47.428Z,0
2018-07-13T01:05:12.999Z,0
2018-07-13T01:05:38.576Z,0
2018-07-13T01:06:04.174Z,0
2018-07-13T01:06:29.751Z,0
2018-07-13T01:06:55.334Z,0
2018-07-13T01:07:20.926Z,0
2018-07-13T01:07:46.496Z,0
2018-07-13T01:08:12.051Z,0
2018-07-13T01:08:37.619Z,0
2018-07-13T01:09:03.179Z,0
2018-07-13T01:09:28.742Z,0
2018-07-13T01:09:54.330Z,0
2018-07-13T01:10:19.919Z,0
2018-07-13T01:10:45.476Z,0
2018-07-13T01:11:11.078Z,0
2018-07-13T01:11:36.644Z,0
2018-07-13T01:12:02.218Z,0
2018-07-13T01:12:27.767Z,0
2018-07-13T01:12:53.345Z,0
2018-07-13T01:13:18.933Z,0
2018-07-13T01:13:44.547Z,0
2018-07-13T01:14:10.129Z,0
2018-07-13T01:14:35.687Z,0
2018-07-13T01:15:01.249Z,0
2018-07-13T01:15:26.830Z,0
2018-07-13T01:15:52.398Z,0
2018-07-13T01:16:17.952Z,0
2018-07-13T01:16:43.526Z,0
2018-07-13T01:17:09.104Z,0
2018-07-13T01:17:34.666Z,0
2018-07-13T01:18:00.246Z,0
2018-07-13T01:18:25.821Z,0
2018-07-13T01:18:51.384Z,0
2018-07-13T01:19:16.949Z,0
2018-07-13T01:19:42.514Z,0
2018-07-13T01:20:08.097Z,0
2018-07-13T01:20:33.661Z,0
2018-07-13T01:20:59.242Z,0
2018-07-13T01:21:24.825Z,0
2018-07-13T01:21:50.416Z,0
2018-07-13T01:22:15.977Z,0
2018-07-13T01:22:41.536Z,0
2018-07-13T01:23:07.116Z,0
2018-07-13T01:23:32.699Z,0
2018-07-13T01:23:58.245Z,0
2018-07-13T01:24:23.826Z,0
2018-07-13T01:24:49.411Z,0
2018-07-13T01:25:14.983Z,0
2018-07-13T01:25:40.538Z,0
2018-07-13T01:26:49.468Z,0
2018-07-13T01:27:53.132Z,0
2018-07-13T01:30:00.453Z,0
2018-07-13T01:30:26.038Z,0
2018-07-13T01:30:51.616Z,0
2018-07-13T01:31:17.177Z,0
2018-07-13T01:31:42.726Z,0
2018-07-13T01:32:08.334Z,0
2018-07-13T01:32:33.910Z,0
2018-07-13T01:32:59.495Z,0
2018-07-13T01:33:25.070Z,0
2018-07-13T01:33:50.630Z,0
2018-07-13T01:34:16.209Z,0
2018-07-13T01:34:41.756Z,0
2018-07-13T01:35:07.328Z,0
2018-07-13T01:35:32.895Z,0
2018-07-13T01:35:58.478Z,0
2018-07-13T01:36:24.058Z,0
2018-07-13T01:36:49.622Z,0
2018-07-13T01:37:15.202Z,0
2018-07-13T01:37:40.771Z,0
2018-07-13T01:38:06.322Z,0
2018-07-13T01:38:31.888Z,0
2018-07-13T01:38:57.465Z,0
2018-07-13T01:39:23.021Z,0
2018-07-13T01:39:48.598Z,0
2018-07-13T01:40:14.152Z,0
2018-07-13T01:40:39.705Z,0
2018-07-13T01:41:05.289Z,0
2018-07-13T01:41:30.888Z,0
2018-07-13T01:41:56.441Z,0
2018-07-13T01:42:22.014Z,0
2018-07-13T01:42:47.576Z,0
2018-07-13T01:43:13.130Z,0
2018-07-13T01:43:38.687Z,0
2018-07-13T01:44:04.247Z,0
2018-07-13T01:44:29.812Z,0
2018-07-13T01:44:55.390Z,0
2018-07-13T01:45:20.990Z,0
2018-07-13T01:45:46.590Z,0
2018-07-13T01:46:12.157Z,0
2018-07-13T01:46:37.716Z,0
2018-07-13T01:47:03.292Z,0
2018-07-13T01:47:28.847Z,0
2018-07-13T01:47:54.429Z,0
2018-07-13T01:48:19.987Z,0
2018-07-13T01:48:45.557Z,0
2018-07-13T01:49:11.105Z,0
2018-07-13T01:49:36.704Z,0
2018-07-13T01:50:02.284Z,0
2018-07-13T01:50:27.860Z,0
2018-07-13T01:50:53.418Z,0
2018-07-13T01:51:18.981Z,0
2018-07-13T01:51:44.601Z,0
2018-07-13T01:52:10.189Z,0
2018-07-13T01:52:35.749Z,0
2018-07-13T01:53:01.304Z,0
2018-07-13T01:53:26.883Z,0
2018-07-13T01:53:52.486Z,0
2018-07-13T01:54:18.070Z,0
2018-07-13T01:54:43.628Z,0
2018-07-13T01:55:09.199Z,0
2018-07-13T01:55:34.768Z,0
2018-07-13T01:56:00.343Z,0
2018-07-13T01:56:25.902Z,0
2018-07-13T01:56:51.470Z,0
2018-07-13T01:57:17.035Z,0
2018-07-13T01:57:42.621Z,0
2018-07-13T01:58:08.197Z,0
2018-07-13T01:58:33.752Z,0
2018-07-13T01:58:59.315Z,0
2018-07-13T01:59:24.910Z,0
2018-07-13T01:59:50.480Z,0
2018-07-13T02:00:16.050Z,0
2018-07-13T02:00:41.599Z,0
2018-07-13T02:01:07.176Z,0
2018-07-13T02:01:32.747Z,0
2018-07-13T02:01:58.309Z,0
2018-07-13T02:02:23.878Z,0
2018-07-13T02:02:49.438Z,0
2018-07-13T02:03:15.010Z,0
2018-07-13T02:03:40.573Z,0
2018-07-13T02:04:06.135Z,0
2018-07-13T02:04:31.708Z,0
2018-07-13T02:04:57.270Z,0
2018-07-13T02:05:22.868Z,0
2018-07-13T02:05:48.441Z,0
2018-07-13T02:06:14.020Z,0
2018-07-13T02:06:39.572Z,0
2018-07-13T02:07:05.144Z,0
2018-07-13T02:07:30.698Z,0
2018-07-13T02:07:56.269Z,0
2018-07-13T02:08:21.848Z,0
2018-07-13T02:08:47.409Z,0
2018-07-13T02:09:12.984Z,0
2018-07-13T02:09:38.533Z,0
2018-07-13T02:10:04.100Z,0
2018-07-13T02:10:29.675Z,0
2018-07-13T02:10:55.263Z,0
2018-07-13T02:11:20.825Z,0
2018-07-13T02:11:46.383Z,0
2018-07-13T02:12:11.962Z,0
2018-07-13T02:12:37.555Z,0
2018-07-13T02:13:03.125Z,0
2018-07-13T02:13:28.689Z,0
2018-07-13T02:13:54.276Z,0
2018-07-13T02:14:19.857Z,0
2018-07-13T02:14:45.413Z,0
2018-07-13T02:15:10.986Z,0
2018-07-13T02:15:36.551Z,0
2018-07-13T02:16:02.100Z,0
2018-07-13T02:16:27.676Z,0
2018-07-13T02:17:36.472Z,0
2018-07-13T02:18:02.082Z,0
2018-07-13T02:18:27.645Z,0
2018-07-13T02:18:53.229Z,0
2018-07-13T02:19:18.772Z,0
2018-07-13T02:19:44.364Z,0
2018-07-13T02:20:09.915Z,0
2018-07-13T02:20:35.496Z,0
2018-07-13T02:21:01.088Z,0
2018-07-13T02:21:26.666Z,0
2018-07-13T02:21:52.212Z,0
2018-07-13T02:22:17.783Z,0
2018-07-13T02:22:43.361Z,0
2018-07-13T02:23:08.908Z,0
2018-07-13T02:23:34.484Z,0
2018-07-13T02:24:00.063Z,0
2018-07-13T02:24:25.626Z,0
2018-07-13T02:24:51.235Z,0
2018-07-13T02:25:16.796Z,0
2018-07-13T02:25:42.378Z,0
2018-07-13T02:26:07.964Z,0
2018-07-13T02:26:33.524Z,0
2018-07-13T02:26:59.083Z,0
2018-07-13T02:27:24.667Z,0
2018-07-13T02:27:50.254Z,0
2018-07-13T02:28:15.823Z,0
2018-07-13T02:28:41.386Z,0
2018-07-13T02:29:06.960Z,0
2018-07-13T02:29:32.580Z,0
2018-07-13T02:29:58.152Z,0
2018-07-13T02:30:23.728Z,0
2018-07-13T02:30:49.272Z,0
2018-07-13T02:31:14.868Z,0
2018-07-13T02:31:40.450Z,0
2018-07-13T02:32:06.012Z,0
2018-07-13T02:32:31.574Z,0
2018-07-13T02:32:57.165Z,0
2018-07-13T02:33:22.762Z,0
2018-07-13T02:33:48.362Z,0
2018-07-13T02:34:13.903Z,0
2018-07-13T02:34:39.473Z,0
2018-07-13T02:35:05.054Z,0
2018-07-13T02:35:30.657Z,0
2018-07-13T02:35:56.213Z,0
2018-07-13T02:36:21.777Z,0
2018-07-13T02:36:47.358Z,0
2018-07-13T02:37:12.916Z,0
2018-07-13T02:37:38.473Z,0
2018-07-13T02:38:04.040Z,0
2018-07-13T02:38:29.612Z,0
2018-07-13T02:38:55.211Z,0
2018-07-13T02:39:20.746Z,0
2018-07-13T02:39:46.333Z,0
2018-07-13T02:40:11.885Z,0
2018-07-13T02:40:37.468Z,0
2018-07-13T02:41:03.069Z,0
2018-07-13T02:41:28.616Z,0
2018-07-13T02:41:54.169Z,0
2018-07-13T02:42:19.750Z,0
2018-07-13T02:42:45.353Z,0
2018-07-13T02:43:10.922Z,0
2018-07-13T02:43:36.481Z,0
2018-07-13T02:44:02.070Z,0
2018-07-13T02:44:27.654Z,0
2018-07-13T02:44:53.204Z,0
2018-07-13T02:45:18.764Z,0
2018-07-13T02:45:44.338Z,0
2018-07-13T02:46:09.908Z,0
2018-07-13T02:46:35.486Z,0
2018-07-13T02:47:01.079Z,0
2018-07-13T02:47:26.648Z,0
2018-07-13T02:47:52.254Z,0
2018-07-13T02:48:17.843Z,0
2018-07-13T02:48:43.416Z,0
2018-07-13T02:49:09.050Z,0
2018-07-13T02:49:34.611Z,0
2018-07-13T02:50:00.158Z,0
2018-07-13T02:50:25.736Z,0
2018-07-13T02:50:51.298Z,0
2018-07-13T02:51:16.873Z,0
2018-07-13T02:51:42.443Z,0
2018-07-13T02:52:07.991Z,0
2018-07-13T02:52:33.539Z,0
2018-07-13T02:52:59.090Z,0
2018-07-13T02:53:24.667Z,0
2018-07-13T02:53:50.246Z,0
2018-07-13T02:54:15.801Z,0
2018-07-13T02:54:41.368Z,0
2018-07-13T02:55:06.938Z,0
2018-07-13T02:55:32.552Z,0
2018-07-13T02:55:58.130Z,0
2018-07-13T02:56:23.689Z,0
2018-07-13T02:56:49.262Z,0
2018-07-13T02:57:14.842Z,0
2018-07-13T02:57:40.413Z,0
2018-07-13T02:58:05.974Z,0
2018-07-13T02:58:31.543Z,0
2018-07-13T02:58:57.132Z,0
2018-07-13T02:59:22.688Z,0
2018-07-13T02:59:48.248Z,0
2018-07-13T03:00:13.855Z,0
2018-07-13T03:00:39.436Z,0
2018-07-13T03:01:04.995Z,0
2018-07-13T03:01:30.564Z,0
2018-07-13T03:01:56.127Z,0
2018-07-13T03:02:21.697Z,0
2018-07-13T03:02:47.255Z,0
2018-07-13T03:03:12.866Z,0
2018-07-13T03:03:38.434Z,0
2018-07-13T03:04:04.004Z,0
2018-07-13T03:04:29.565Z,0
2018-07-13T03:04:55.150Z,0
2018-07-13T03:05:20.730Z,0
2018-07-13T03:05:46.304Z,0
2018-07-13T03:06:11.866Z,0
2018-07-13T03:06:37.444Z,0
2018-07-13T03:07:03.024Z,0
2018-07-13T03:07:28.588Z,0
2018-07-13T03:07:54.138Z,0
2018-07-13T03:08:19.741Z,0
2018-07-13T03:08:45.294Z,0
2018-07-13T03:09:10.886Z,0
2018-07-13T03:09:36.467Z,0
2018-07-13T03:10:02.029Z,0
2018-07-13T03:10:27.602Z,0
2018-07-13T03:10:53.160Z,0
2018-07-13T03:11:18.719Z,0
2018-07-13T03:11:44.329Z,0
2018-07-13T03:12:09.907Z,0
2018-07-13T03:12:35.487Z,0
2018-07-13T03:13:01.032Z,0
2018-07-13T03:13:26.614Z,0
2018-07-13T03:13:52.183Z,0
2018-07-13T03:14:17.746Z,0
2018-07-13T03:14:43.317Z,0
2018-07-13T03:15:08.874Z,0
2018-07-13T03:15:34.432Z,0
2018-07-13T03:16:00.034Z,0
2018-07-13T03:16:25.608Z,0
2018-07-13T03:16:51.180Z,0
2018-07-13T03:17:16.761Z,0
2018-07-13T03:17:42.338Z,0
2018-07-13T03:18:07.909Z,0
2018-07-13T03:18:33.465Z,0
2018-07-13T03:18:59.031Z,0
2018-07-13T03:19:24.616Z,0
2018-07-13T03:19:50.185Z,0
2018-07-13T03:20:15.763Z,0
2018-07-13T03:20:41.325Z,0
2018-07-13T03:21:06.901Z,0
2018-07-13T03:21:32.483Z,0
2018-07-13T03:21:58.097Z,0
2018-07-13T03:22:23.622Z,0
2018-07-13T03:22:49.176Z,0
2018-07-13T03:23:14.744Z,0
2018-07-13T03:23:40.332Z,0
2018-07-13T03:24:05.922Z,0
2018-07-13T03:24:31.530Z,0
2018-07-13T03:24:57.108Z,0
2018-07-13T03:25:22.699Z,0
2018-07-13T03:25:48.268Z,0
2018-07-13T03:26:13.830Z,0
2018-07-13T03:26:39.397Z,0
2018-07-13T03:27:04.960Z,0
2018-07-13T03:27:30.535Z,0
2018-07-13T03:27:56.094Z,0
2018-07-13T03:28:21.653Z,0
2018-07-13T03:28:47.230Z,0
2018-07-13T03:29:12.808Z,0
2018-07-13T03:29:38.400Z,0
2018-07-13T03:30:03.966Z,0
2018-07-13T03:30:29.546Z,0
2018-07-13T03:30:55.119Z,0
2018-07-13T03:31:20.700Z,0
2018-07-13T03:31:46.294Z,0
2018-07-13T03:32:11.863Z,0
2018-07-13T03:32:37.415Z,0
2018-07-13T03:33:02.963Z,0
2018-07-13T03:33:28.527Z,0
2018-07-13T03:33:54.096Z,0
2018-07-13T03:34:19.650Z,0
2018-07-13T03:34:45.210Z,0
2018-07-13T03:35:10.784Z,0
2018-07-13T03:35:36.341Z,0
2018-07-13T03:36:01.886Z,0
2018-07-13T03:36:27.435Z,0
2018-07-13T03:36:52.998Z,0
2018-07-13T03:37:18.581Z,0
2018-07-13T03:37:44.134Z,0
2018-07-13T03:38:09.715Z,0
2018-07-13T03:38:35.314Z,0
2018-07-13T03:39:00.904Z,0
2018-07-13T03:39:26.500Z,0
2018-07-13T03:39:52.086Z,0
2018-07-13T03:40:17.649Z,0
2018-07-13T03:40:43.212Z,0
2018-07-13T03:41:08.794Z,0
2018-07-13T03:41:34.357Z,0
2018-07-13T03:41:59.923Z,0
2018-07-13T03:42:25.498Z,0
2018-07-13T03:42:51.051Z,0
2018-07-13T03:43:16.624Z,0
2018-07-13T03:43:42.208Z,0
2018-07-13T03:44:07.779Z,0
2018-07-13T03:44:33.354Z,0
2018-07-13T03:44:58.926Z,0
2018-07-13T03:45:24.491Z,0
2018-07-13T03:45:50.069Z,0
2018-07-13T03:46:15.629Z,0
2018-07-13T03:46:41.192Z,0
2018-07-13T03:47:06.784Z,0
2018-07-13T03:47:32.344Z,0
2018-07-13T03:47:57.902Z,0
2018-07-13T03:48:23.527Z,0
2018-07-13T03:48:49.094Z,0
2018-07-13T03:49:14.666Z,0
2018-07-13T03:49:40.225Z,0
2018-07-13T03:50:05.800Z,0
2018-07-13T03:50:31.366Z,0
2018-07-13T03:50:56.950Z,0
2018-07-13T03:51:22.516Z,0
2018-07-13T03:51:48.078Z,0
2018-07-13T03:52:13.644Z,0
2018-07-13T03:52:39.202Z,0
2018-07-13T03:53:04.776Z,0
2018-07-13T03:53:30.368Z,0
2018-07-13T03:53:55.940Z,0
2018-07-13T03:54:21.511Z,0
2018-07-13T03:54:47.086Z,0
2018-07-13T03:55:12.668Z,0
2018-07-13T03:55:38.221Z,0
2018-07-13T03:56:03.793Z,0
2018-07-13T03:56:29.372Z,0
2018-07-13T03:56:54.962Z,0
2018-07-13T03:57:20.566Z,0
2018-07-13T03:57:46.116Z,0
2018-07-13T03:58:11.717Z,0
2018-07-13T03:58:37.318Z,0
2018-07-13T03:59:02.863Z,0
2018-07-13T03:59:28.416Z,0
2018-07-13T03:59:53.994Z,0
2018-07-13T04:00:19.568Z,0
2018-07-13T04:00:45.141Z,0
2018-07-13T04:01:10.706Z,0
2018-07-13T04:01:36.263Z,0
2018-07-13T04:02:01.827Z,0
2018-07-13T04:02:27.384Z,0
2018-07-13T04:02:52.974Z,0
2018-07-13T04:03:18.562Z,0
2018-07-13T04:03:44.149Z,0
2018-07-13T04:04:09.715Z,0
2018-07-13T04:04:35.271Z,0
2018-07-13T04:05:00.865Z,0
2018-07-13T04:05:26.469Z,0
2018-07-13T04:05:52.043Z,0
2018-07-13T04:06:17.649Z,0
2018-07-13T04:06:43.209Z,0
2018-07-13T04:07:08.881Z,0
2018-07-13T04:07:34.373Z,0
2018-07-13T04:07:59.932Z,0
2018-07-13T04:08:25.490Z,0
2018-07-13T04:08:51.071Z,0
2018-07-13T04:09:16.635Z,0
2018-07-13T04:09:42.213Z,0
2018-07-13T04:10:07.779Z,0
2018-07-13T04:10:33.366Z,0
2018-07-13T04:10:58.928Z,0
2018-07-13T04:11:24.488Z,0
2018-07-13T04:11:50.062Z,0
2018-07-13T04:12:15.624Z,0
2018-07-13T04:12:41.201Z,0
2018-07-13T04:13:06.772Z,0
2018-07-13T04:13:32.380Z,0
2018-07-13T04:13:57.958Z,0
2018-07-13T04:14:23.531Z,0
2018-07-13T04:14:49.246Z,0
2018-07-13T04:15:14.703Z,0
2018-07-13T04:15:40.264Z,0
2018-07-13T04:16:05.868Z,0
2018-07-13T04:16:31.428Z,0
2018-07-13T04:16:57.001Z,0
2018-07-13T04:17:22.584Z,0
2018-07-13T04:17:48.178Z,0
2018-07-13T04:18:13.698Z,0
2018-07-13T04:18:39.260Z,0
2018-07-13T04:19:04.818Z,0
2018-07-13T04:19:30.396Z,0
2018-07-13T04:19:55.964Z,0
2018-07-13T04:20:21.560Z,0
2018-07-13T04:20:47.115Z,0
2018-07-13T04:21:12.688Z,4
2018-07-13T04:21:38.256Z,4
2018-07-13T04:22:03.794Z,4
2018-07-13T04:22:29.383Z,4
2018-07-13T04:22:54.967Z,4
2018-07-13T04:23:20.546Z,4
2018-07-13T04:23:46.112Z,4
2018-07-13T04:24:11.676Z,4
2018-07-13T04:24:37.241Z,4
2018-07-13T04:25:02.809Z,4
2018-07-13T04:25:28.358Z,4
2018-07-13T04:25:53.921Z,4
2018-07-13T04:26:19.505Z,4
2018-07-13T04:26:45.066Z,4
2018-07-13T04:27:10.646Z,0
2018-07-13T04:27:36.224Z,0
2018-07-13T04:28:01.788Z,0
2018-07-13T04:28:27.374Z,0
2018-07-13T04:28:53.027Z,0
2018-07-13T04:29:18.509Z,0
2018-07-13T04:29:44.092Z,0
2018-07-13T04:30:09.658Z,0
2018-07-13T04:30:35.268Z,0
2018-07-13T04:31:00.844Z,0
2018-07-13T04:31:26.407Z,0
2018-07-13T04:31:51.980Z,0
2018-07-13T04:32:17.603Z,4
2018-07-13T04:32:43.145Z,4
2018-07-13T04:33:08.715Z,0
2018-07-13T04:33:34.283Z,0
2018-07-13T04:33:59.880Z,0
2018-07-13T04:34:25.446Z,0
2018-07-13T04:34:50.980Z,0
2018-07-13T04:35:16.559Z,0
2018-07-13T04:35:42.140Z,4
2018-07-13T04:36:07.712Z,4
2018-07-13T04:36:33.290Z,4
2018-07-13T04:36:58.859Z,4
2018-07-13T04:37:24.441Z,0
2018-07-13T04:37:50.026Z,0
2018-07-13T04:38:15.637Z,0
2018-07-13T04:38:41.242Z,0
2018-07-13T04:39:06.876Z,0
2018-07-13T04:39:32.451Z,0
2018-07-13T04:39:58.016Z,0
2018-07-13T04:40:23.581Z,0
2018-07-13T04:40:49.227Z,0
2018-07-13T04:41:14.743Z,4
2018-07-13T04:41:40.337Z,4
2018-07-13T04:42:05.928Z,4
2018-07-13T04:42:31.498Z,4
2018-07-13T04:42:57.070Z,4
2018-07-13T04:43:22.644Z,4
2018-07-13T04:43:48.236Z,0
2018-07-13T04:44:13.823Z,8
2018-07-13T04:44:39.375Z,4
2018-07-13T04:45:04.978Z,4
2018-07-13T04:45:30.554Z,4
2018-07-13T04:45:56.131Z,4
2018-07-13T04:46:21.736Z,4
2018-07-13T04:46:47.303Z,8
2018-07-13T04:47:12.851Z,8
2018-07-13T04:47:38.435Z,8
2018-07-13T04:48:03.993Z,8
2018-07-13T04:48:29.572Z,8
2018-07-13T04:48:55.173Z,8
2018-07-13T04:49:20.752Z,8
2018-07-13T04:49:46.339Z,8
2018-07-13T04:50:12.011Z,8
2018-07-13T04:50:37.517Z,8
2018-07-13T04:51:03.076Z,8
2018-07-13T04:51:28.649Z,8
2018-07-13T04:51:54.212Z,8
2018-07-13T04:52:19.782Z,8
2018-07-13T04:52:45.342Z,8
2018-07-13T04:53:10.921Z,8
2018-07-13T04:53:36.492Z,8
2018-07-13T04:54:02.060Z,8
2018-07-13T04:54:27.633Z,8
2018-07-13T04:54:53.234Z,8
2018-07-13T04:55:18.819Z,12
2018-07-13T04:55:44.369Z,12
2018-07-13T04:56:09.947Z,8
2018-07-13T04:56:35.521Z,8
2018-07-13T04:57:01.092Z,8
2018-07-13T04:57:26.670Z,8
2018-07-13T04:57:52.254Z,8
2018-07-13T04:58:17.835Z,8
2018-07-13T04:58:43.470Z,8
2018-07-13T04:59:09.045Z,8
2018-07-13T04:59:34.591Z,8
2018-07-13T05:00:00.175Z,8
2018-07-13T05:00:25.748Z,8
2018-07-13T05:00:51.334Z,8
2018-07-13T05:01:16.914Z,8
2018-07-13T05:01:42.484Z,12
2018-07-13T05:02:08.041Z,8
2018-07-13T05:02:33.613Z,8
2018-07-13T05:02:59.242Z,8
2018-07-13T05:03:24.827Z,8
2018-07-13T05:03:50.424Z,8
2018-07-13T05:04:15.992Z,8
2018-07-13T05:04:41.566Z,8
2018-07-13T05:05:07.122Z,12
2018-07-13T05:05:32.717Z,12
2018-07-13T05:05:58.289Z,12
2018-07-13T05:06:23.846Z,12
2018-07-13T05:06:49.416Z,12
2018-07-13T05:07:14.960Z,12
2018-07-13T05:07:40.529Z,12
2018-07-13T05:08:06.107Z,12
2018-07-13T05:08:31.670Z,12
2018-07-13T05:08:57.231Z,12
2018-07-13T05:09:22.816Z,12
2018-07-13T05:09:48.370Z,12
2018-07-13T05:10:13.923Z,12
2018-07-13T05:10:39.511Z,12
2018-07-13T05:11:05.090Z,8
2018-07-13T05:11:30.682Z,8
2018-07-13T05:11:56.213Z,8
2018-07-13T05:12:21.879Z,8
2018-07-13T05:12:47.440Z,8
2018-07-13T05:13:13.006Z,8
2018-07-13T05:13:38.645Z,8
2018-07-13T05:14:04.201Z,8
2018-07-13T05:14:29.862Z,8
2018-07-13T05:14:55.564Z,8
2018-07-13T05:15:21.168Z,12
2018-07-13T05:15:46.746Z,12
2018-07-13T05:16:12.506Z,12
2018-07-13T05:16:38.154Z,12
2018-07-13T05:17:03.786Z,12
2018-07-13T05:17:29.317Z,12
2018-07-13T05:17:55.025Z,12
2018-07-13T05:18:20.525Z,12
2018-07-13T05:18:46.108Z,12
2018-07-13T05:19:11.824Z,12
2018-07-13T05:19:37.403Z,12
2018-07-13T05:20:03.131Z,16
2018-07-13T05:20:28.771Z,16
2018-07-13T05:20:54.395Z,16
2018-07-13T05:21:20.086Z,12
2018-07-13T05:21:45.633Z,12
2018-07-13T05:22:11.153Z,12
2018-07-13T05:22:36.717Z,12
2018-07-13T05:23:02.367Z,12
2018-07-13T05:23:27.977Z,12
2018-07-13T05:23:53.522Z,12
2018-07-13T05:24:19.153Z,16
2018-07-13T05:24:44.745Z,16
2018-07-13T05:25:10.333Z,16
2018-07-13T05:25:35.927Z,12
2018-07-13T05:26:01.565Z,16
2018-07-13T05:26:27.093Z,16
2018-07-13T05:26:52.661Z,16
2018-07-13T05:27:18.283Z,20
2018-07-13T05:27:43.853Z,16
2018-07-13T05:28:09.514Z,20
2018-07-13T05:28:35.059Z,16
2018-07-13T05:29:00.624Z,16
2018-07-13T05:29:26.223Z,20
2018-07-13T05:29:51.831Z,16
2018-07-13T05:30:17.349Z,16
2018-07-13T05:30:42.986Z,16
2018-07-13T05:31:08.591Z,20
2018-07-13T05:31:34.321Z,20
2018-07-13T05:31:59.999Z,16
2018-07-13T05:32:25.522Z,16
2018-07-13T05:32:51.098Z,16
2018-07-13T05:33:16.644Z,16
2018-07-13T05:33:42.196Z,16
2018-07-13T05:34:07.767Z,16
2018-07-13T05:34:33.409Z,16
2018-07-13T05:34:59.042Z,16
2018-07-13T05:35:24.597Z,16
2018-07-13T05:35:50.219Z,20
2018-07-13T05:36:15.801Z,20
2018-07-13T05:36:41.478Z,20
2018-07-13T05:37:07.059Z,20
2018-07-13T05:37:32.653Z,20
2018-07-13T05:37:58.304Z,20
2018-07-13T05:38:23.991Z,16
2018-07-13T05:38:49.540Z,16
2018-07-13T05:39:15.094Z,20
2018-07-13T05:39:40.632Z,20
2018-07-13T05:40:06.211Z,20
2018-07-13T05:40:31.800Z,16
2018-07-13T05:40:57.406Z,20
2018-07-13T05:41:23.021Z,20
2018-07-13T05:41:48.670Z,20
2018-07-13T05:42:14.240Z,20
2018-07-13T05:42:39.813Z,20
2018-07-13T05:43:05.405Z,20
2018-07-13T05:43:30.965Z,20
2018-07-13T05:43:56.616Z,20
2018-07-13T05:44:22.197Z,16
2018-07-13T05:44:47.868Z,20
2018-07-13T05:45:13.459Z,20
2018-07-13T05:45:39.064Z,20
2018-07-13T05:46:04.689Z,20
2018-07-13T05:46:30.351Z,24
2018-07-13T05:46:55.941Z,20
2018-07-13T05:47:21.532Z,20
2018-07-13T05:47:47.124Z,20
2018-07-13T05:48:12.697Z,20
2018-07-13T05:48:38.265Z,24
2018-07-13T05:49:03.846Z,20
2018-07-13T05:49:29.410Z,20
2018-07-13T05:49:54.955Z,24
2018-07-13T05:50:20.548Z,24
2018-07-13T05:50:46.121Z,20
2018-07-13T05:51:11.702Z,20
2018-07-13T05:51:37.249Z,20
2018-07-13T05:52:02.830Z,20
2018-07-13T05:52:28.400Z,24
2018-07-13T05:52:53.949Z,24
2018-07-13T05:53:19.541Z,20
2018-07-13T05:53:45.150Z,20
2018-07-13T05:54:10.710Z,20
2018-07-13T05:54:36.281Z,20
2018-07-13T05:55:01.853Z,20
2018-07-13T05:55:27.439Z,24
2018-07-13T05:55:53.050Z,24
2018-07-13T05:56:18.650Z,24
2018-07-13T05:56:44.201Z,24
2018-07-13T05:57:09.780Z,24
2018-07-13T05:57:35.356Z,24
2018-07-13T05:58:00.946Z,24
2018-07-13T05:58:26.507Z,28
2018-07-13T05:58:52.070Z,28
2018-07-13T05:59:17.633Z,24
2018-07-13T05:59:43.224Z,24
2018-07-13T06:00:08.802Z,24
2018-07-13T06:00:34.351Z,24
2018-07-13T06:00:59.952Z,24
2018-07-13T06:01:25.530Z,24
2018-07-13T06:01:51.095Z,24
2018-07-13T06:02:16.678Z,28
2018-07-13T06:02:42.234Z,28
2018-07-13T06:03:07.830Z,28
2018-07-13T06:03:33.428Z,28
2018-07-13T06:03:59.047Z,24
2018-07-13T06:04:24.564Z,24
2018-07-13T06:04:50.163Z,24
2018-07-13T06:05:15.726Z,24
2018-07-13T06:05:41.326Z,24
2018-07-13T06:06:06.942Z,24
2018-07-13T06:06:32.474Z,24
2018-07-13T06:06:58.038Z,24
2018-07-13T06:07:23.629Z,24
2018-07-13T06:07:49.160Z,24
2018-07-13T06:08:14.736Z,24
2018-07-13T06:08:40.329Z,24
2018-07-13T06:09:05.991Z,24
2018-07-13T06:09:31.526Z,24
2018-07-13T06:09:57.124Z,24
2018-07-13T06:10:22.686Z,28
2018-07-13T06:10:48.270Z,28
2018-07-13T06:11:13.845Z,24
2018-07-13T06:11:39.422Z,28
2018-07-13T06:12:05.034Z,32
2018-07-13T06:12:30.624Z,28
2018-07-13T06:12:56.208Z,32
2018-07-13T06:13:21.756Z,28
2018-07-13T06:13:47.342Z,28
2018-07-13T06:14:12.924Z,28
2018-07-13T06:14:38.548Z,28
2018-07-13T06:15:04.089Z,28
2018-07-13T06:15:29.635Z,28
2018-07-13T06:15:55.227Z,24
2018-07-13T06:16:20.789Z,28
2018-07-13T06:16:46.349Z,28
2018-07-13T06:17:11.938Z,32
2018-07-13T06:17:37.522Z,28
2018-07-13T06:18:03.112Z,28
2018-07-13T06:18:28.684Z,28
2018-07-13T06:18:54.246Z,28
2018-07-13T06:19:19.812Z,28
2018-07-13T06:19:45.380Z,28